sensor_id;sensor_type;location;lat;lon;timestamp;pressure;altitude;pressure_sealevel;temperature;humidity
70952;BME280;69214;55.880;37.542;2023-04-22T00:02:06;98374.28;;;6.25;51.24
70952;BME280;69214;55.880;37.542;2023-04-22T00:04:32;98381.59;;;6.24;50.82
70952;BME280;69214;55.880;37.542;2023-04-22T00:06:58;98387.69;;;6.20;51.15
70952;BME280;69214;55.880;37.542;2023-04-22T00:09:24;98395.22;;;6.17;51.55
70952;BME280;69214;55.880;37.542;2023-04-22T00:11:51;98390.13;;;6.09;51.87
70952;BME280;69214;55.880;37.542;2023-04-22T00:14:17;98403.44;;;6.11;51.80
70952;BME280;69214;55.880;37.542;2023-04-22T00:16:43;98390.81;;;6.05;51.64
70952;BME280;69214;55.880;37.542;2023-04-22T00:19:13;98391.03;;;6.03;51.56
70952;BME280;69214;55.880;37.542;2023-04-22T00:21:40;98397.97;;;5.99;52.32
70952;BME280;69214;55.880;37.542;2023-04-22T00:24:09;98396.09;;;6.00;52.66
70952;BME280;69214;55.880;37.542;2023-04-22T00:26:35;98407.06;;;6.05;52.91
70952;BME280;69214;55.880;37.542;2023-04-22T00:29:01;98403.06;;;6.07;52.47
70952;BME280;69214;55.880;37.542;2023-04-22T00:31:28;98407.66;;;6.07;52.38
70952;BME280;69214;55.880;37.542;2023-04-22T00:34:00;98403.28;;;6.06;52.51
70952;BME280;69214;55.880;37.542;2023-04-22T00:36:29;98392.78;;;5.98;52.20
70952;BME280;69214;55.880;37.542;2023-04-22T00:38:55;98395.72;;;5.96;52.51
70952;BME280;69214;55.880;37.542;2023-04-22T00:41:22;98407.16;;;5.98;53.04
70952;BME280;69214;55.880;37.542;2023-04-22T00:43:49;98403.63;;;5.98;53.23
70952;BME280;69214;55.880;37.542;2023-04-22T00:46:15;98397.38;;;5.97;53.17
70952;BME280;69214;55.880;37.542;2023-04-22T00:48:40;98395.13;;;5.94;51.61
70952;BME280;69214;55.880;37.542;2023-04-22T00:51:07;98394.28;;;5.94;52.61
70952;BME280;69214;55.880;37.542;2023-04-22T00:53:39;98379.38;;;5.84;53.25
70952;BME280;69214;55.880;37.542;2023-04-22T00:56:05;98386.22;;;5.87;51.75
70952;BME280;69214;55.880;37.542;2023-04-22T00:58:31;98390.16;;;5.91;53.17
70952;BME280;69214;55.880;37.542;2023-04-22T01:00:57;98396.19;;;5.93;53.28
70952;BME280;69214;55.880;37.542;2023-04-22T01:03:25;98391.81;;;5.92;52.99
70952;BME280;69214;55.880;37.542;2023-04-22T01:05:52;98392.03;;;5.91;52.93
70952;BME280;69214;55.880;37.542;2023-04-22T01:08:18;98384.34;;;5.88;53.75
70952;BME280;69214;55.880;37.542;2023-04-22T01:10:45;98373.00;;;5.79;52.77
70952;BME280;69214;55.880;37.542;2023-04-22T01:13:15;98386.84;;;5.89;53.23
70952;BME280;69214;55.880;37.542;2023-04-22T01:15:45;98388.72;;;5.89;52.60
70952;BME280;69214;55.880;37.542;2023-04-22T01:18:14;98387.88;;;5.88;52.67
70952;BME280;69214;55.880;37.542;2023-04-22T01:20:44;98389.56;;;5.89;53.00
70952;BME280;69214;55.880;37.542;2023-04-22T01:23:18;98369.47;;;5.78;51.17
70952;BME280;69214;55.880;37.542;2023-04-22T01:25:45;98373.59;;;5.81;51.92
70952;BME280;69214;55.880;37.542;2023-04-22T01:28:12;98366.63;;;5.73;53.77
70952;BME280;69214;55.880;37.542;2023-04-22T01:30:38;98372.25;;;5.72;53.46
70952;BME280;69214;55.880;37.542;2023-04-22T01:33:09;98375.19;;;5.70;54.00
70952;BME280;69214;55.880;37.542;2023-04-22T01:35:36;98380.59;;;5.70;53.61
70952;BME280;69214;55.880;37.542;2023-04-22T01:38:09;98377.31;;;5.68;52.67
70952;BME280;69214;55.880;37.542;2023-04-22T01:40:36;98377.75;;;5.65;53.05
70952;BME280;69214;55.880;37.542;2023-04-22T01:43:05;98368.50;;;5.54;54.41
70952;BME280;69214;55.880;37.542;2023-04-22T01:45:33;98383.63;;;5.62;54.20
70952;BME280;69214;55.880;37.542;2023-04-22T01:48:03;98375.13;;;5.59;54.07
70952;BME280;69214;55.880;37.542;2023-04-22T01:50:32;98369.72;;;5.59;54.78
70952;BME280;69214;55.880;37.542;2023-04-22T01:52:58;98390.53;;;5.58;54.56
70952;BME280;69214;55.880;37.542;2023-04-22T01:55:25;98379.94;;;5.57;54.94
70952;BME280;69214;55.880;37.542;2023-04-22T01:57:55;98384.06;;;5.59;54.82
70952;BME280;69214;55.880;37.542;2023-04-22T02:00:24;98382.66;;;5.57;54.39
70952;BME280;69214;55.880;37.542;2023-04-22T02:02:50;98385.13;;;5.58;54.47
70952;BME280;69214;55.880;37.542;2023-04-22T02:05:16;98391.59;;;5.57;54.61
70952;BME280;69214;55.880;37.542;2023-04-22T02:07:44;98377.25;;;5.57;54.82
70952;BME280;69214;55.880;37.542;2023-04-22T02:10:11;98372.50;;;5.52;54.79
70952;BME280;69214;55.880;37.542;2023-04-22T02:12:38;98383.03;;;5.60;55.09
70952;BME280;69214;55.880;37.542;2023-04-22T02:15:10;98368.28;;;5.56;54.96
70952;BME280;69214;55.880;37.542;2023-04-22T02:17:36;98376.94;;;5.65;54.92
70952;BME280;69214;55.880;37.542;2023-04-22T02:20:04;98365.97;;;5.60;54.38
70952;BME280;69214;55.880;37.542;2023-04-22T02:22:32;98377.53;;;5.67;54.40
70952;BME280;69214;55.880;37.542;2023-04-22T02:24:58;98379.56;;;5.71;54.37
70952;BME280;69214;55.880;37.542;2023-04-22T02:27:24;98379.94;;;5.75;54.99
70952;BME280;69214;55.880;37.542;2023-04-22T02:29:50;98365.78;;;5.73;54.22
70952;BME280;69214;55.880;37.542;2023-04-22T02:32:16;98371.34;;;5.78;54.77
70952;BME280;69214;55.880;37.542;2023-04-22T02:34:42;98378.56;;;5.84;54.58
70952;BME280;69214;55.880;37.542;2023-04-22T02:37:10;98380.81;;;5.87;54.09
70952;BME280;69214;55.880;37.542;2023-04-22T02:39:36;98372.47;;;5.89;54.57
70952;BME280;69214;55.880;37.542;2023-04-22T02:42:02;98374.28;;;5.95;54.09
70952;BME280;69214;55.880;37.542;2023-04-22T02:44:28;98375.13;;;5.95;54.07
70952;BME280;69214;55.880;37.542;2023-04-22T02:46:54;98382.69;;;6.05;53.37
70952;BME280;69214;55.880;37.542;2023-04-22T02:49:24;98381.19;;;6.09;54.80
70952;BME280;69214;55.880;37.542;2023-04-22T02:51:52;98381.31;;;6.14;54.36
70952;BME280;69214;55.880;37.542;2023-04-22T02:54:25;98376.03;;;6.19;53.75
70952;BME280;69214;55.880;37.542;2023-04-22T02:56:58;98381.00;;;6.22;53.91
70952;BME280;69214;55.880;37.542;2023-04-22T02:59:30;98383.22;;;6.25;53.91
70952;BME280;69214;55.880;37.542;2023-04-22T03:01:59;98387.13;;;6.29;54.60
70952;BME280;69214;55.880;37.542;2023-04-22T03:04:55;98381.25;;;6.32;54.01
70952;BME280;69214;55.880;37.542;2023-04-22T03:07:26;98388.94;;;6.35;54.04
70952;BME280;69214;55.880;37.542;2023-04-22T03:10:01;98394.09;;;6.37;53.12
70952;BME280;69214;55.880;37.542;2023-04-22T03:12:33;98344.44;;;6.13;54.28
70952;BME280;69214;55.880;37.542;2023-04-22T03:15:01;98383.41;;;6.42;53.16
70952;BME280;69214;55.880;37.542;2023-04-22T03:17:30;98387.06;;;6.47;53.34
70952;BME280;69214;55.880;37.542;2023-04-22T03:19:58;98392.16;;;6.56;53.05
70952;BME280;69214;55.880;37.542;2023-04-22T03:22:26;98391.22;;;6.62;53.63
70952;BME280;69214;55.880;37.542;2023-04-22T03:24:55;98383.81;;;6.69;53.30
70952;BME280;69214;55.880;37.542;2023-04-22T03:27:22;98385.72;;;6.80;53.28
70952;BME280;69214;55.880;37.542;2023-04-22T03:29:50;98389.28;;;6.92;52.65
70952;BME280;69214;55.880;37.542;2023-04-22T03:32:16;98394.59;;;7.10;52.65
70952;BME280;69214;55.880;37.542;2023-04-22T03:34:42;98382.53;;;7.30;52.16
70952;BME280;69214;55.880;37.542;2023-04-22T03:37:08;98398.97;;;8.72;50.22
70952;BME280;69214;55.880;37.542;2023-04-22T03:39:34;98394.84;;;11.10;45.56
70952;BME280;69214;55.880;37.542;2023-04-22T03:42:09;98399.78;;;13.25;41.88
70952;BME280;69214;55.880;37.542;2023-04-22T03:44:43;98391.19;;;14.47;39.02
70952;BME280;69214;55.880;37.542;2023-04-22T03:47:14;98398.75;;;15.05;37.70
70952;BME280;69214;55.880;37.542;2023-04-22T03:49:52;98394.78;;;14.43;39.07
70952;BME280;69214;55.880;37.542;2023-04-22T03:52:19;98399.50;;;14.27;39.78
70952;BME280;69214;55.880;37.542;2023-04-22T03:54:56;98402.13;;;15.83;37.49
70952;BME280;69214;55.880;37.542;2023-04-22T03:57:26;98404.31;;;17.74;34.71
70952;BME280;69214;55.880;37.542;2023-04-22T03:59:56;98390.13;;;19.30;32.25
70952;BME280;69214;55.880;37.542;2023-04-22T04:02:21;98406.41;;;20.56;30.76
70952;BME280;69214;55.880;37.542;2023-04-22T04:04:47;98404.31;;;21.39;29.70
70952;BME280;69214;55.880;37.542;2023-04-22T04:07:14;98414.16;;;21.83;28.85
70952;BME280;69214;55.880;37.542;2023-04-22T04:09:40;98414.63;;;22.41;28.52
70952;BME280;69214;55.880;37.542;2023-04-22T04:12:10;98414.94;;;23.73;27.34
70952;BME280;69214;55.880;37.542;2023-04-22T04:14:41;98414.03;;;25.15;25.75
70952;BME280;69214;55.880;37.542;2023-04-22T04:17:11;98417.72;;;26.19;24.30
70952;BME280;69214;55.880;37.542;2023-04-22T04:19:39;98418.88;;;26.65;24.00
70952;BME280;69214;55.880;37.542;2023-04-22T04:22:05;98422.28;;;26.74;23.61
70952;BME280;69214;55.880;37.542;2023-04-22T04:24:35;98397.31;;;26.65;23.38
70952;BME280;69214;55.880;37.542;2023-04-22T04:27:08;98415.94;;;27.47;23.24
70952;BME280;69214;55.880;37.542;2023-04-22T04:29:41;98411.31;;;27.97;22.61
70952;BME280;69214;55.880;37.542;2023-04-22T04:32:12;98425.75;;;27.76;22.22
70952;BME280;69214;55.880;37.542;2023-04-22T04:34:38;98418.69;;;28.05;22.58
70952;BME280;69214;55.880;37.542;2023-04-22T04:37:06;98415.28;;;28.87;21.33
70952;BME280;69214;55.880;37.542;2023-04-22T04:39:57;98419.53;;;29.64;21.46
70952;BME280;69214;55.880;37.542;2023-04-22T04:42:34;98415.13;;;30.96;20.16
70952;BME280;69214;55.880;37.542;2023-04-22T04:45:12;98416.88;;;32.44;19.01
70952;BME280;69214;55.880;37.542;2023-04-22T04:47:42;98412.28;;;33.53;17.99
70952;BME280;69214;55.880;37.542;2023-04-22T04:50:16;98413.44;;;34.36;17.37
70952;BME280;69214;55.880;37.542;2023-04-22T04:52:42;98410.56;;;34.91;17.45
70952;BME280;69214;55.880;37.542;2023-04-22T04:55:12;98413.78;;;35.65;16.76
70952;BME280;69214;55.880;37.542;2023-04-22T04:57:43;98421.78;;;36.04;18.72
70952;BME280;69214;55.880;37.542;2023-04-22T05:00:11;98409.16;;;36.09;16.64
70952;BME280;69214;55.880;37.542;2023-04-22T05:02:39;98428.19;;;36.39;15.99
70952;BME280;69214;55.880;37.542;2023-04-22T05:05:05;98408.59;;;36.44;15.91
70952;BME280;69214;55.880;37.542;2023-04-22T05:07:31;98419.59;;;36.65;15.45
70952;BME280;69214;55.880;37.542;2023-04-22T05:09:58;98415.78;;;36.76;15.67
70952;BME280;69214;55.880;37.542;2023-04-22T05:12:25;98419.03;;;36.74;15.43
70952;BME280;69214;55.880;37.542;2023-04-22T05:14:50;98428.56;;;36.64;15.41
70952;BME280;69214;55.880;37.542;2023-04-22T05:17:16;98427.25;;;35.91;15.57
70952;BME280;69214;55.880;37.542;2023-04-22T05:19:42;98397.19;;;34.92;16.12
70952;BME280;69214;55.880;37.542;2023-04-22T05:22:08;98415.59;;;34.69;16.72
70952;BME280;69214;55.880;37.542;2023-04-22T05:24:33;98425.53;;;35.33;16.40
70952;BME280;69214;55.880;37.542;2023-04-22T05:26:59;98426.38;;;36.48;15.14
70952;BME280;69214;55.880;37.542;2023-04-22T05:29:28;98434.56;;;36.70;15.36
70952;BME280;69214;55.880;37.542;2023-04-22T05:31:54;98417.66;;;36.09;15.22
70952;BME280;69214;55.880;37.542;2023-04-22T05:34:19;98425.06;;;36.03;15.10
70952;BME280;69214;55.880;37.542;2023-04-22T05:36:48;98421.44;;;36.52;15.66
70952;BME280;69214;55.880;37.542;2023-04-22T05:39:20;98420.00;;;37.54;16.12
70952;BME280;69214;55.880;37.542;2023-04-22T05:41:50;98425.97;;;38.35;14.13
70952;BME280;69214;55.880;37.542;2023-04-22T05:44:16;98420.91;;;39.37;13.54
70952;BME280;69214;55.880;37.542;2023-04-22T05:46:42;98428.72;;;39.91;13.62
70952;BME280;69214;55.880;37.542;2023-04-22T05:49:07;98423.94;;;39.88;13.21
70952;BME280;69214;55.880;37.542;2023-04-22T05:51:51;98420.91;;;40.20;13.21
70952;BME280;69214;55.880;37.542;2023-04-22T05:54:20;98425.72;;;40.49;13.29
70952;BME280;69214;55.880;37.542;2023-04-22T05:56:46;98424.22;;;40.31;12.83
70952;BME280;69214;55.880;37.542;2023-04-22T05:59:12;98426.97;;;40.48;12.76
70952;BME280;69214;55.880;37.542;2023-04-22T06:01:38;98425.13;;;40.16;13.00
70952;BME280;69214;55.880;37.542;2023-04-22T06:04:06;98433.03;;;39.70;13.60
70952;BME280;69214;55.880;37.542;2023-04-22T06:06:34;98432.50;;;39.88;13.28
70952;BME280;69214;55.880;37.542;2023-04-22T06:09:00;98425.47;;;39.63;13.14
70952;BME280;69214;55.880;37.542;2023-04-22T06:11:26;98429.66;;;38.68;13.37
70952;BME280;69214;55.880;37.542;2023-04-22T06:13:52;98428.41;;;37.61;14.08
70952;BME280;69214;55.880;37.542;2023-04-22T06:16:18;98422.16;;;36.83;14.24
70952;BME280;69214;55.880;37.542;2023-04-22T06:18:44;98433.28;;;36.24;14.70
70952;BME280;69214;55.880;37.542;2023-04-22T06:21:12;98422.94;;;34.63;15.84
70952;BME280;69214;55.880;37.542;2023-04-22T06:23:41;98433.84;;;34.65;15.81
70952;BME280;69214;55.880;37.542;2023-04-22T06:26:08;98432.13;;;34.78;15.26
70952;BME280;69214;55.880;37.542;2023-04-22T06:28:35;98432.75;;;35.00;15.35
70952;BME280;69214;55.880;37.542;2023-04-22T06:31:06;98417.38;;;34.49;15.32
70952;BME280;69214;55.880;37.542;2023-04-22T06:33:31;98421.94;;;34.36;15.83
70952;BME280;69214;55.880;37.542;2023-04-22T06:35:58;98425.66;;;36.17;14.89
70952;BME280;69214;55.880;37.542;2023-04-22T06:38:26;98422.97;;;36.07;14.56
70952;BME280;69214;55.880;37.542;2023-04-22T06:41:16;98428.44;;;31.82;16.61
70952;BME280;69214;55.880;37.542;2023-04-22T06:43:44;98409.00;;;29.57;18.49
70952;BME280;69214;55.880;37.542;2023-04-22T06:46:10;98410.34;;;30.04;18.33
70952;BME280;69214;55.880;37.542;2023-04-22T06:48:54;98398.09;;;28.92;19.34
70952;BME280;69214;55.880;37.542;2023-04-22T06:51:39;98411.63;;;27.92;19.72
70952;BME280;69214;55.880;37.542;2023-04-22T06:54:06;98414.13;;;26.34;20.94
70952;BME280;69214;55.880;37.542;2023-04-22T06:56:31;98414.66;;;25.36;22.07
70952;BME280;69214;55.880;37.542;2023-04-22T06:58:57;98421.16;;;24.88;22.70
70952;BME280;69214;55.880;37.542;2023-04-22T07:01:23;98414.28;;;23.55;23.69
70952;BME280;69214;55.880;37.542;2023-04-22T07:03:50;98417.97;;;22.25;24.97
70952;BME280;69214;55.880;37.542;2023-04-22T07:06:21;98424.72;;;21.26;25.81
70952;BME280;69214;55.880;37.542;2023-04-22T07:08:47;98421.66;;;21.91;25.77
70952;BME280;69214;55.880;37.542;2023-04-22T07:11:14;98426.91;;;24.31;23.99
70952;BME280;69214;55.880;37.542;2023-04-22T07:14:04;98415.56;;;27.29;21.17
70952;BME280;69214;55.880;37.542;2023-04-22T07:16:30;98414.94;;;27.01;20.81
70952;BME280;69214;55.880;37.542;2023-04-22T07:18:56;98416.75;;;26.42;21.34
70952;BME280;69214;55.880;37.542;2023-04-22T07:21:23;98416.38;;;27.30;20.67
70952;BME280;69214;55.880;37.542;2023-04-22T07:23:52;98398.09;;;28.92;19.64
70952;BME280;69214;55.880;37.542;2023-04-22T07:26:18;98405.16;;;29.73;18.96
70952;BME280;69214;55.880;37.542;2023-04-22T07:28:44;98409.06;;;29.98;18.52
70952;BME280;69214;55.880;37.542;2023-04-22T07:31:09;98422.25;;;29.90;18.41
70952;BME280;69214;55.880;37.542;2023-04-22T07:33:35;98419.19;;;28.11;19.68
70952;BME280;69214;55.880;37.542;2023-04-22T07:36:02;98425.50;;;25.66;21.64
70952;BME280;69214;55.880;37.542;2023-04-22T07:38:32;98425.63;;;23.50;22.95
70952;BME280;69214;55.880;37.542;2023-04-22T07:41:00;98428.03;;;21.92;23.78
70952;BME280;69214;55.880;37.542;2023-04-22T07:43:27;98420.09;;;20.61;25.96
70952;BME280;69214;55.880;37.542;2023-04-22T07:45:57;98424.63;;;20.09;27.21
70952;BME280;69214;55.880;37.542;2023-04-22T07:48:23;98419.94;;;19.78;27.32
70952;BME280;69214;55.880;37.542;2023-04-22T07:50:49;98418.63;;;19.31;27.93
70952;BME280;69214;55.880;37.542;2023-04-22T07:53:20;98434.28;;;18.63;28.59
70952;BME280;69214;55.880;37.542;2023-04-22T07:55:48;98433.16;;;17.82;29.89
70952;BME280;69214;55.880;37.542;2023-04-22T07:58:17;98434.69;;;17.23;30.77
70952;BME280;69214;55.880;37.542;2023-04-22T08:00:44;98430.69;;;16.97;31.17
70952;BME280;69214;55.880;37.542;2023-04-22T08:03:12;98434.63;;;16.91;31.02
70952;BME280;69214;55.880;37.542;2023-04-22T08:05:39;98413.94;;;16.93;31.16
70952;BME280;69214;55.880;37.542;2023-04-22T08:08:05;98432.22;;;17.73;30.32
70952;BME280;69214;55.880;37.542;2023-04-22T08:10:33;98421.47;;;19.93;27.73
70952;BME280;69214;55.880;37.542;2023-04-22T08:12:59;98420.94;;;22.50;25.16
70952;BME280;69214;55.880;37.542;2023-04-22T08:15:25;98418.66;;;24.46;22.48
70952;BME280;69214;55.880;37.542;2023-04-22T08:17:52;98414.66;;;24.96;21.77
70952;BME280;69214;55.880;37.542;2023-04-22T08:20:19;98419.22;;;24.76;21.46
70952;BME280;69214;55.880;37.542;2023-04-22T08:22:50;98409.78;;;24.20;22.36
70952;BME280;69214;55.880;37.542;2023-04-22T08:25:26;98413.72;;;23.62;22.99
70952;BME280;69214;55.880;37.542;2023-04-22T08:28:00;98412.25;;;22.51;23.82
70952;BME280;69214;55.880;37.542;2023-04-22T08:30:29;98419.97;;;21.44;25.48
70952;BME280;69214;55.880;37.542;2023-04-22T08:32:57;98419.00;;;20.31;26.22
70952;BME280;69214;55.880;37.542;2023-04-22T08:35:27;98417.94;;;19.25;27.70
70952;BME280;69214;55.880;37.542;2023-04-22T08:37:53;98413.22;;;18.67;28.72
70952;BME280;69214;55.880;37.542;2023-04-22T08:40:19;98422.50;;;18.58;28.73
70952;BME280;69214;55.880;37.542;2023-04-22T08:42:45;98423.22;;;18.50;28.71
70952;BME280;69214;55.880;37.542;2023-04-22T08:45:12;98415.16;;;18.39;28.85
70952;BME280;69214;55.880;37.542;2023-04-22T08:47:38;98426.81;;;18.36;29.40
70952;BME280;69214;55.880;37.542;2023-04-22T08:50:04;98406.47;;;18.32;28.77
70952;BME280;69214;55.880;37.542;2023-04-22T08:52:30;98423.84;;;18.60;28.48
70952;BME280;69214;55.880;37.542;2023-04-22T08:54:59;98422.50;;;18.71;28.01
70952;BME280;69214;55.880;37.542;2023-04-22T08:57:31;98423.44;;;18.53;28.42
70952;BME280;69214;55.880;37.542;2023-04-22T09:00:02;98421.72;;;18.02;28.96
70952;BME280;69214;55.880;37.542;2023-04-22T09:02:32;98416.25;;;17.70;29.16
70952;BME280;69214;55.880;37.542;2023-04-22T09:05:06;98416.06;;;17.47;29.45
70952;BME280;69214;55.880;37.542;2023-04-22T09:07:36;98408.09;;;17.13;29.73
70952;BME280;69214;55.880;37.542;2023-04-22T09:10:08;98419.66;;;16.97;29.95
70952;BME280;69214;55.880;37.542;2023-04-22T09:12:36;98418.25;;;16.80;30.56
70952;BME280;69214;55.880;37.542;2023-04-22T09:15:05;98426.97;;;16.88;29.78
70952;BME280;69214;55.880;37.542;2023-04-22T09:17:33;98430.25;;;16.90;30.10
70952;BME280;69214;55.880;37.542;2023-04-22T09:20:05;98417.34;;;16.85;29.84
70952;BME280;69214;55.880;37.542;2023-04-22T09:22:45;98417.13;;;16.81;29.51
70952;BME280;69214;55.880;37.542;2023-04-22T09:25:20;98419.34;;;16.61;29.18
70952;BME280;69214;55.880;37.542;2023-04-22T09:27:56;98405.78;;;16.45;29.48
70952;BME280;69214;55.880;37.542;2023-04-22T09:30:31;98402.78;;;15.99;29.99
70952;BME280;69214;55.880;37.542;2023-04-22T09:33:05;98412.25;;;15.88;31.35
70952;BME280;69214;55.880;37.542;2023-04-22T09:35:37;98399.66;;;15.82;31.30
70952;BME280;69214;55.880;37.542;2023-04-22T09:38:11;98408.03;;;15.96;31.04
70952;BME280;69214;55.880;37.542;2023-04-22T09:40:42;98402.00;;;16.17;30.59
70952;BME280;69214;55.880;37.542;2023-04-22T09:43:11;98402.75;;;16.23;31.16
70952;BME280;69214;55.880;37.542;2023-04-22T09:45:45;98397.31;;;16.18;30.30
70952;BME280;69214;55.880;37.542;2023-04-22T09:48:18;98404.81;;;15.88;30.22
70952;BME280;69214;55.880;37.542;2023-04-22T09:50:49;98407.63;;;15.60;30.47
70952;BME280;69214;55.880;37.542;2023-04-22T09:53:21;98411.03;;;15.46;31.38
70952;BME280;69214;55.880;37.542;2023-04-22T09:55:54;98406.06;;;15.48;31.10
70952;BME280;69214;55.880;37.542;2023-04-22T09:58:24;98405.50;;;15.75;30.64
70952;BME280;69214;55.880;37.542;2023-04-22T10:00:56;98395.91;;;16.20;30.20
70952;BME280;69214;55.880;37.542;2023-04-22T10:03:24;98400.69;;;16.76;30.17
70952;BME280;69214;55.880;37.542;2023-04-22T10:05:50;98371.84;;;16.88;30.03
70952;BME280;69214;55.880;37.542;2023-04-22T10:08:16;98402.09;;;16.93;30.52
70952;BME280;69214;55.880;37.542;2023-04-22T10:10:44;98379.97;;;16.79;30.33
70952;BME280;69214;55.880;37.542;2023-04-22T10:13:10;98366.09;;;16.28;30.64
70952;BME280;69214;55.880;37.542;2023-04-22T10:18:04;98396.81;;;15.92;30.67
70952;BME280;69214;55.880;37.542;2023-04-22T10:20:33;98402.34;;;15.63;31.23
70952;BME280;69214;55.880;37.542;2023-04-22T10:23:03;98401.25;;;15.35;31.29
70952;BME280;69214;55.880;37.542;2023-04-22T10:25:29;98394.81;;;15.16;31.55
70952;BME280;69214;55.880;37.542;2023-04-22T10:30:30;98392.31;;;14.85;31.30
70952;BME280;69214;55.880;37.542;2023-04-22T10:41:31;98376.84;;;15.81;30.20
70952;BME280;69214;55.880;37.542;2023-04-22T10:44:00;98381.50;;;16.47;30.03
70952;BME280;69214;55.880;37.542;2023-04-22T10:48:56;98387.03;;;17.69;28.44
70952;BME280;69214;55.880;37.542;2023-04-22T10:54:04;98379.63;;;17.64;28.27
70952;BME280;69214;55.880;37.542;2023-04-22T10:56:30;98381.13;;;17.43;28.26
70952;BME280;69214;55.880;37.542;2023-04-22T10:58:56;98390.81;;;17.08;28.95
70952;BME280;69214;55.880;37.542;2023-04-22T11:01:29;98374.16;;;16.62;29.11
70952;BME280;69214;55.880;37.542;2023-04-22T11:04:20;98388.88;;;16.33;29.59
70952;BME280;69214;55.880;37.542;2023-04-22T11:15:23;98380.34;;;16.11;29.38
70952;BME280;69214;55.880;37.542;2023-04-22T11:17:50;98369.66;;;16.28;29.42
70952;BME280;69214;55.880;37.542;2023-04-22T11:20:17;98385.22;;;16.38;29.46
70952;BME280;69214;55.880;37.542;2023-04-22T11:22:45;98379.25;;;16.31;29.39
70952;BME280;69214;55.880;37.542;2023-04-22T11:25:11;98390.41;;;16.20;29.55
70952;BME280;69214;55.880;37.542;2023-04-22T11:27:39;98378.25;;;16.03;29.61
70952;BME280;69214;55.880;37.542;2023-04-22T11:30:11;98385.16;;;15.76;29.97
70952;BME280;69214;55.880;37.542;2023-04-22T11:32:45;98386.06;;;15.67;29.74
70952;BME280;69214;55.880;37.542;2023-04-22T11:35:20;98373.91;;;15.73;30.11
70952;BME280;69214;55.880;37.542;2023-04-22T11:38:03;98380.06;;;15.88;29.81
70952;BME280;69214;55.880;37.542;2023-04-22T11:40:31;98371.69;;;15.99;29.46
70952;BME280;69214;55.880;37.542;2023-04-22T11:43:00;98372.34;;;16.33;29.34
70952;BME280;69214;55.880;37.542;2023-04-22T11:45:29;98368.75;;;16.75;28.91
70952;BME280;69214;55.880;37.542;2023-04-22T11:48:00;98374.81;;;16.91;28.75
70952;BME280;69214;55.880;37.542;2023-04-22T11:50:31;98371.69;;;16.98;29.13
70952;BME280;69214;55.880;37.542;2023-04-22T11:53:03;98369.66;;;17.03;29.00
70952;BME280;69214;55.880;37.542;2023-04-22T11:55:37;98354.72;;;16.91;29.00
70952;BME280;69214;55.880;37.542;2023-04-22T11:58:13;98365.66;;;16.58;29.87
70952;BME280;69214;55.880;37.542;2023-04-22T12:00:42;98362.66;;;16.17;30.22
70952;BME280;69214;55.880;37.542;2023-04-22T12:05:46;98376.09;;;15.47;30.27
70952;BME280;69214;55.880;37.542;2023-04-22T12:08:14;98372.06;;;15.10;31.21
70952;BME280;69214;55.880;37.542;2023-04-22T12:10:50;98358.03;;;14.78;31.32
70952;BME280;69214;55.880;37.542;2023-04-22T12:13:27;98359.00;;;14.58;31.26
70952;BME280;69214;55.880;37.542;2023-04-22T12:15:59;98365.59;;;14.57;31.71
70952;BME280;69214;55.880;37.542;2023-04-22T12:18:33;98368.25;;;14.67;31.22
70952;BME280;69214;55.880;37.542;2023-04-22T12:23:25;98358.69;;;15.28;30.65
70952;BME280;69214;55.880;37.542;2023-04-22T12:25:54;98354.19;;;15.66;30.54
70952;BME280;69214;55.880;37.542;2023-04-22T12:28:23;98352.72;;;15.97;29.90
70952;BME280;69214;55.880;37.542;2023-04-22T12:30:51;98345.03;;;16.37;30.05
70952;BME280;69214;55.880;37.542;2023-04-22T12:33:21;98353.41;;;16.69;29.76
70952;BME280;69214;55.880;37.542;2023-04-22T12:35:48;98354.38;;;16.78;29.33
70952;BME280;69214;55.880;37.542;2023-04-22T12:38:17;98336.72;;;16.79;29.44
70952;BME280;69214;55.880;37.542;2023-04-22T12:40:43;98347.81;;;16.74;29.59
70952;BME280;69214;55.880;37.542;2023-04-22T12:43:08;98332.53;;;16.44;30.02
70952;BME280;69214;55.880;37.542;2023-04-22T12:45:34;98345.31;;;16.16;30.36
70952;BME280;69214;55.880;37.542;2023-04-22T12:48:00;98339.72;;;15.79;30.50
70952;BME280;69214;55.880;37.542;2023-04-22T12:50:26;98336.56;;;15.43;31.43
70952;BME280;69214;55.880;37.542;2023-04-22T12:52:52;98349.97;;;15.20;31.36
70952;BME280;69214;55.880;37.542;2023-04-22T12:55:18;98340.06;;;14.90;31.92
70952;BME280;69214;55.880;37.542;2023-04-22T12:57:47;98335.53;;;14.76;31.96
70952;BME280;69214;55.880;37.542;2023-04-22T13:00:13;98336.38;;;14.71;32.31
70952;BME280;69214;55.880;37.542;2023-04-22T13:02:43;98344.03;;;14.74;31.26
70952;BME280;69214;55.880;37.542;2023-04-22T13:05:10;98346.25;;;14.72;31.83
70952;BME280;69214;55.880;37.542;2023-04-22T13:07:36;98347.38;;;14.71;31.52
70952;BME280;69214;55.880;37.542;2023-04-22T13:10:03;98345.41;;;14.77;31.33
70952;BME280;69214;55.880;37.542;2023-04-22T13:12:29;98348.84;;;14.93;31.32
70952;BME280;69214;55.880;37.542;2023-04-22T13:14:55;98358.75;;;15.22;31.02
70952;BME280;69214;55.880;37.542;2023-04-22T13:17:21;98348.31;;;15.48;30.78
70952;BME280;69214;55.880;37.542;2023-04-22T13:19:48;98353.13;;;15.85;30.21
70952;BME280;69214;55.880;37.542;2023-04-22T13:22:15;98348.69;;;16.32;30.02
70952;BME280;69214;55.880;37.542;2023-04-22T13:24:41;98347.06;;;16.69;28.97
70952;BME280;69214;55.880;37.542;2023-04-22T13:27:07;98355.75;;;16.95;28.93
70952;BME280;69214;55.880;37.542;2023-04-22T13:29:34;98346.94;;;17.11;29.01
70952;BME280;69214;55.880;37.542;2023-04-22T13:32:02;98357.91;;;17.30;28.54
70952;BME280;69214;55.880;37.542;2023-04-22T13:34:28;98349.34;;;17.32;28.87